createdAt,value
2019-03-10T00:02:04.993Z,50.67
2019-03-10T00:04:34.999Z,50.80
2019-03-10T00:07:05.213Z,50.54
2019-03-10T00:09:35.405Z,49.91
2019-03-10T00:12:05.521Z,50.61
2019-03-10T00:14:35.741Z,49.96
2019-03-10T00:17:05.945Z,51.69
2019-03-10T00:19:36.851Z,51.09
2019-03-10T00:22:07.882Z,50.92
2019-03-10T00:24:37.917Z,50.64
2019-03-10T00:27:08.121Z,51.18
2019-03-10T00:29:38.136Z,49.71
2019-03-10T00:32:08.322Z,49.64
2019-03-10T00:34:38.546Z,50.35
2019-03-10T00:37:08.657Z,50.17
2019-03-10T00:40:20.092Z,50.02
2019-03-10T00:43:28.665Z,50.24
2019-03-10T00:46:45.771Z,51.05
2019-03-10T00:50:08.864Z,52.27
2019-03-10T00:52:45.692Z,50.74
2019-03-10T00:55:15.998Z,51.84
2019-03-10T00:57:46.196Z,51.61
2019-03-10T01:00:18.282Z,51.89
2019-03-10T01:02:48.389Z,50.80
2019-03-10T01:05:18.637Z,52.20
2019-03-10T01:07:48.949Z,51.47
2019-03-10T01:10:19.051Z,51.24
2019-03-10T01:12:49.274Z,50.79
2019-03-10T01:15:19.472Z,50.74
2019-03-10T01:17:52.355Z,50.96
2019-03-10T01:20:22.466Z,53.29
2019-03-10T01:22:52.485Z,54.40
2019-03-10T01:25:22.683Z,52.88
2019-03-10T01:27:52.886Z,51.75
2019-03-10T01:30:23.105Z,51.44
2019-03-10T01:33:36.925Z,51.41
2019-03-10T01:36:15.773Z,52.51
2019-03-10T01:38:45.986Z,51.57
2019-03-10T01:41:15.990Z,51.58
2019-03-10T01:43:45.990Z,51.73
2019-03-10T01:46:16.204Z,51.61
2019-03-10T01:48:46.404Z,53.37
2019-03-10T01:51:16.352Z,52.13
2019-03-10T01:53:46.977Z,52.01
2019-03-10T01:56:17.018Z,51.97
2019-03-10T01:58:46.916Z,52.91
2019-03-10T02:01:17.202Z,54.33
2019-03-10T02:03:47.462Z,56.80
2019-03-10T02:06:17.350Z,54.69
2019-03-10T02:08:47.448Z,53.99
2019-03-10T02:11:17.649Z,53.60
2019-03-10T02:13:47.850Z,52.31
2019-03-10T02:16:18.034Z,52.33
2019-03-10T02:18:48.113Z,51.75
2019-03-10T02:21:18.305Z,52.65
2019-03-10T02:23:48.504Z,52.88
2019-03-10T02:26:18.494Z,54.72
2019-03-10T02:28:48.487Z,55.04
2019-03-10T02:31:18.681Z,54.77
2019-03-10T02:33:48.576Z,54.74
2019-03-10T02:36:18.760Z,54.64
2019-03-10T02:38:48.957Z,53.58
2019-03-10T02:41:18.956Z,54.12
2019-03-10T02:43:48.966Z,55.04
2019-03-10T02:46:19.144Z,55.33
2019-03-10T02:48:49.332Z,54.87
2019-03-10T02:51:19.233Z,53.90
2019-03-10T02:53:49.452Z,53.24
2019-03-10T02:56:19.768Z,52.88
2019-03-10T02:58:49.952Z,53.44
2019-03-10T03:01:20.091Z,52.59
2019-03-10T03:03:50.187Z,52.54
2019-03-10T03:06:20.376Z,55.32
2019-03-10T03:08:50.569Z,59.79
2019-03-10T03:11:20.645Z,58.96
2019-03-10T03:13:50.836Z,56.80
2019-03-10T03:16:20.858Z,54.97
2019-03-10T03:18:51.019Z,55.52
2019-03-10T03:21:21.202Z,55.21
2019-03-10T03:23:51.391Z,54.33
2019-03-10T03:26:21.388Z,54.14
2019-03-10T03:28:51.276Z,53.69
2019-03-10T03:31:21.480Z,53.71
2019-03-10T03:33:51.688Z,55.12
2019-03-10T03:36:25.984Z,54.60
2019-03-10T03:39:23.311Z,54.67
2019-03-10T03:41:53.494Z,54.21
2019-03-10T03:44:23.697Z,53.56
2019-03-10T03:46:53.680Z,54.37
2019-03-10T03:49:23.581Z,56.21
2019-03-10T03:51:53.770Z,56.14
2019-03-10T03:54:24.101Z,56.51
2019-03-10T03:56:54.552Z,58.98
2019-03-10T03:59:24.539Z,57.75
2019-03-10T04:02:23.065Z,57.90
2019-03-10T04:04:53.255Z,59.37
2019-03-10T04:07:23.159Z,57.33
2019-03-10T04:09:53.051Z,57.25
2019-03-10T04:12:23.249Z,57.43
2019-03-10T04:14:53.448Z,56.98
2019-03-10T04:17:23.450Z,56.83
2019-03-10T04:19:53.538Z,55.96
2019-03-10T04:22:23.738Z,56.97
2019-03-10T04:24:53.913Z,56.42
2019-03-10T04:27:23.899Z,55.27
2019-03-10T04:29:53.805Z,55.21
2019-03-10T04:32:23.991Z,55.89
2019-03-10T04:34:53.879Z,55.67
2019-03-10T04:37:24.082Z,56.41
2019-03-10T04:39:54.275Z,56.39
2019-03-10T04:42:24.278Z,55.02
2019-03-10T04:44:54.179Z,54.72
2019-03-10T04:47:24.372Z,54.42
2019-03-10T04:49:54.642Z,54.80
2019-03-10T04:52:24.546Z,57.61
2019-03-10T04:55:07.578Z,57.20
2019-03-10T04:57:39.576Z,60.28
2019-03-10T05:00:09.852Z,59.35
2019-03-10T05:02:40.031Z,70.46
2019-03-10T05:05:10.163Z,65.54
2019-03-10T05:07:40.365Z,65.01
2019-03-10T05:10:10.661Z,53.98
2019-03-10T05:12:40.573Z,55.61
2019-03-10T05:15:10.783Z,54.45
2019-03-10T05:17:40.779Z,53.85
2019-03-10T05:20:11.417Z,54.01
2019-03-10T05:22:41.613Z,55.42
2019-03-10T05:25:11.837Z,53.70
2019-03-10T05:27:41.747Z,52.62
2019-03-10T05:30:11.881Z,51.94
2019-03-10T05:32:42.072Z,52.20
2019-03-10T05:35:12.316Z,52.48
2019-03-10T05:37:42.312Z,52.00
2019-03-10T05:40:12.415Z,54.90
2019-03-10T05:42:42.611Z,56.73
2019-03-10T05:45:12.813Z,53.12
2019-03-10T05:47:42.809Z,52.42
2019-03-10T05:50:12.805Z,52.66
2019-03-10T05:52:43.007Z,53.47
2019-03-10T05:55:13.110Z,57.89
2019-03-10T05:57:43.618Z,55.41
2019-03-10T06:00:14.070Z,57.20
2019-03-10T06:02:44.003Z,55.22
2019-03-10T06:05:13.972Z,55.91
2019-03-10T06:07:44.224Z,56.11
2019-03-10T06:10:14.419Z,58.09
2019-03-10T06:12:44.315Z,54.44
2019-03-10T06:15:14.424Z,54.86
2019-03-10T06:17:44.642Z,54.26
2019-03-10T06:20:14.842Z,52.67
2019-03-10T06:22:44.848Z,53.42
2019-03-10T06:25:14.857Z,48.91
2019-03-10T06:27:45.076Z,49.85
2019-03-10T06:30:15.278Z,46.57
2019-03-10T06:32:45.189Z,47.86
2019-03-10T06:35:15.394Z,46.79
2019-03-10T06:37:45.311Z,47.27
2019-03-10T06:40:15.436Z,45.28
2019-03-10T06:42:46.425Z,44.76
2019-03-10T06:45:16.643Z,43.45
2019-03-10T06:47:46.561Z,43.76
2019-03-10T06:50:16.667Z,42.72
2019-03-10T06:52:46.870Z,44.01
2019-03-10T06:55:17.078Z,42.97
2019-03-10T06:57:47.092Z,42.93
2019-03-10T07:00:17.720Z,43.66
2019-03-10T07:02:48.078Z,45.77
2019-03-10T07:05:18.278Z,45.36
2019-03-10T07:07:48.289Z,43.19
2019-03-10T07:10:18.354Z,41.31
2019-03-10T07:12:48.585Z,40.73
2019-03-10T07:15:18.606Z,39.43
2019-03-10T07:17:48.827Z,39.41
2019-03-10T07:20:19.192Z,41.20
2019-03-10T07:22:49.345Z,40.06
2019-03-10T07:25:19.488Z,40.37
2019-03-10T07:28:04.542Z,41.62
2019-03-10T07:30:59.813Z,40.67
2019-03-10T07:33:35.359Z,39.43
2019-03-10T07:36:39.674Z,39.72
2019-03-10T07:39:34.700Z,38.48
2019-03-10T07:42:29.724Z,37.44
2019-03-10T07:45:08.418Z,36.45
2019-03-10T07:48:01.780Z,37.27
2019-03-10T07:51:00.006Z,36.54
2019-03-10T07:53:49.615Z,37.25
2019-03-10T07:56:48.016Z,37.39
2019-03-10T07:59:25.591Z,36.65
2019-03-10T08:02:17.395Z,34.19
2019-03-10T08:05:02.969Z,33.14
2019-03-10T08:07:52.056Z,34.01
2019-03-10T08:10:41.085Z,33.87
2019-03-10T08:13:17.994Z,33.28
2019-03-10T08:15:58.253Z,33.17
2019-03-10T08:18:53.547Z,32.06
2019-03-10T08:21:31.783Z,31.70
2019-03-10T08:24:23.713Z,31.55
2019-03-10T08:27:08.985Z,30.61
2019-03-10T08:30:10.119Z,29.56
2019-03-10T08:32:59.147Z,30.35
2019-03-10T08:35:43.148Z,29.34
2019-03-10T08:38:30.310Z,28.30
2019-03-10T08:41:19.317Z,26.31
2019-03-10T08:44:08.030Z,26.15
2019-03-10T08:47:02.949Z,24.62
2019-03-10T08:49:45.189Z,22.95
2019-03-10T08:52:16.934Z,24.07
2019-03-10T08:55:14.746Z,24.19
2019-03-10T08:58:03.489Z,24.39
2019-03-10T09:00:55.345Z,24.66
2019-03-10T09:03:44.175Z,23.01
2019-03-10T09:06:38.864Z,22.51
2019-03-10T09:09:22.164Z,21.85
2019-03-10T09:12:20.392Z,22.95
2019-03-10T09:15:18.299Z,20.56
2019-03-10T09:18:22.140Z,19.99
2019-03-10T09:21:14.666Z,19.75
2019-03-10T09:24:02.417Z,17.82
2019-03-10T09:26:53.152Z,18.01
2019-03-10T09:29:40.886Z,16.00
2019-03-10T09:32:28.541Z,15.45
2019-03-10T09:35:03.528Z,15.01
2019-03-10T09:37:58.327Z,13.40
2019-03-10T09:41:02.351Z,13.28
2019-03-10T09:43:54.212Z,12.48
2019-03-10T09:46:39.398Z,12.91
2019-03-10T09:49:36.331Z,12.47
2019-03-10T09:52:43.503Z,12.22
2019-03-10T09:55:38.315Z,11.86
2019-03-10T09:58:19.237Z,12.12
2019-03-10T10:01:17.124Z,12.56
2019-03-10T10:04:18.173Z,11.54
2019-03-10T10:07:13.485Z,11.29
2019-03-10T10:09:50.912Z,12.49
2019-03-10T10:12:37.717Z,10.96
2019-03-10T10:15:32.988Z,11.09
2019-03-10T10:18:40.323Z,11.41
2019-03-10T10:21:27.867Z,10.34
2019-03-10T10:24:23.222Z,10.16
2019-03-10T10:27:05.653Z,12.08
2019-03-10T10:29:59.645Z,10.88
2019-03-10T10:33:03.830Z,10.42
2019-03-10T10:36:02.093Z,10.34
2019-03-10T10:38:40.450Z,8.94
2019-03-10T10:41:35.427Z,9.89
2019-03-10T10:44:31.798Z,10.14
2019-03-10T10:47:13.687Z,9.83
2019-03-10T10:50:01.452Z,9.97
2019-03-10T10:52:49.921Z,10.63
2019-03-10T10:55:41.834Z,10.15
2019-03-10T10:58:39.933Z,9.88
2019-03-10T11:01:47.067Z,10.71
2019-03-10T11:04:53.990Z,9.72
2019-03-10T11:07:31.120Z,9.64
2019-03-10T11:10:18.715Z,8.49
2019-03-10T11:13:19.685Z,8.06
2019-03-10T11:15:56.617Z,7.86
2019-03-10T11:18:40.430Z,7.63
2019-03-10T11:21:16.967Z,8.43
2019-03-10T11:24:20.919Z,7.90
2019-03-10T11:27:18.559Z,9.34
2019-03-10T11:30:19.928Z,9.87
2019-03-10T11:33:05.279Z,8.92
2019-03-10T11:35:54.539Z,9.30
2019-03-10T11:38:40.639Z,9.40
2019-03-10T11:41:45.012Z,8.97
2019-03-10T11:44:36.468Z,8.75
2019-03-10T11:47:31.343Z,8.83
2019-03-10T11:50:25.945Z,10.03
2019-03-10T11:53:19.221Z,10.61
2019-03-10T11:55:59.999Z,11.82
2019-03-10T11:58:58.504Z,10.77
2019-03-10T12:01:53.391Z,9.83
2019-03-10T12:04:51.640Z,9.17
2019-03-10T12:07:30.585Z,9.84
2019-03-10T12:10:00.769Z,9.75
2019-03-10T12:12:30.865Z,9.72
2019-03-10T12:15:00.985Z,8.94
2019-03-10T12:17:31.172Z,8.95
2019-03-10T12:20:01.370Z,8.98
2019-03-10T12:22:31.268Z,9.59
2019-03-10T12:25:01.370Z,9.96
2019-03-10T12:27:31.544Z,8.00
2019-03-10T12:30:01.546Z,8.77
2019-03-10T12:32:31.736Z,8.78
2019-03-10T12:35:01.945Z,8.24
2019-03-10T12:37:31.899Z,8.13
2019-03-10T12:40:01.783Z,9.66
2019-03-10T12:42:31.987Z,9.40
2019-03-10T12:45:02.323Z,9.34
2019-03-10T12:47:32.331Z,9.55
2019-03-10T12:50:02.228Z,8.98
2019-03-10T12:52:32.451Z,8.87
2019-03-10T12:55:02.628Z,9.00
2019-03-10T12:57:32.521Z,9.37
2019-03-10T13:00:02.771Z,8.09
2019-03-10T13:02:33.061Z,9.46
2019-03-10T13:05:03.276Z,10.01
2019-03-10T13:07:33.473Z,9.38
2019-03-10T13:10:03.767Z,11.37
2019-03-10T13:12:33.872Z,11.11
2019-03-10T13:15:03.867Z,10.64
2019-03-10T13:17:34.051Z,9.37
2019-03-10T13:20:04.629Z,9.78
2019-03-10T13:22:34.615Z,9.68
2019-03-10T13:25:04.641Z,9.42
2019-03-10T13:27:34.872Z,10.20
2019-03-10T13:30:05.293Z,11.27
2019-03-10T13:32:35.300Z,10.87
2019-03-10T13:35:05.715Z,9.06
2019-03-10T13:37:35.902Z,9.86
2019-03-10T13:40:06.568Z,10.17
2019-03-10T13:42:36.739Z,9.33
2019-03-10T13:45:07.289Z,9.33
2019-03-10T13:47:37.508Z,10.49
2019-03-10T13:50:09.307Z,10.85
2019-03-10T13:52:39.500Z,9.96
2019-03-10T13:55:10.342Z,10.10
2019-03-10T13:57:40.362Z,10.48
2019-03-10T14:00:13.653Z,9.74
2019-03-10T14:02:44.289Z,9.82
2019-03-10T14:05:14.890Z,8.99
2019-03-10T14:07:44.883Z,9.55
2019-03-10T14:10:15.161Z,9.47
2019-03-10T14:12:45.358Z,10.38
2019-03-10T14:15:15.565Z,8.46
2019-03-10T14:17:45.658Z,7.54
2019-03-10T14:20:15.988Z,6.81
2019-03-10T14:22:46.286Z,7.05
2019-03-10T14:25:17.072Z,7.94
2019-03-10T14:27:47.254Z,9.25
2019-03-10T14:30:17.571Z,8.10
2019-03-10T14:32:47.729Z,7.33
2019-03-10T14:35:17.847Z,7.67
2019-03-10T14:37:48.124Z,7.73
2019-03-10T14:40:18.570Z,7.50
2019-03-10T14:42:48.573Z,7.13
2019-03-10T14:45:18.682Z,7.78
2019-03-10T14:47:48.867Z,6.63
2019-03-10T14:50:19.090Z,6.77
2019-03-10T14:52:49.181Z,8.36
2019-03-10T14:55:19.341Z,8.48
2019-03-10T14:57:49.542Z,9.17
2019-03-10T15:00:21.502Z,9.01
2019-03-10T15:02:51.599Z,9.84
2019-03-10T15:05:21.698Z,9.28
2019-03-10T15:07:51.891Z,9.36
2019-03-10T15:10:22.093Z,8.66
2019-03-10T15:12:52.096Z,8.47
2019-03-10T15:15:23.280Z,10.08
2019-03-10T15:17:53.786Z,10.86
2019-03-10T15:20:23.976Z,11.42
2019-03-10T15:22:54.110Z,10.51
2019-03-10T15:25:25.345Z,10.79
2019-03-10T15:27:55.748Z,11.33
2019-03-10T15:30:25.966Z,11.17
2019-03-10T15:32:56.081Z,11.26
2019-03-10T15:35:26.082Z,11.71
2019-03-10T15:37:56.338Z,12.91
2019-03-10T15:40:26.541Z,12.14
2019-03-10T15:42:56.564Z,12.46
2019-03-10T15:45:27.868Z,12.20
2019-03-10T15:47:58.472Z,13.25
2019-03-10T15:50:28.619Z,13.98
2019-03-10T15:52:58.938Z,12.93
2019-03-10T15:55:29.159Z,13.08
2019-03-10T15:57:59.258Z,14.10
2019-03-10T16:00:29.714Z,12.54
2019-03-10T16:03:00.204Z,14.93
2019-03-10T16:05:32.952Z,14.63
2019-03-10T16:08:02.412Z,15.07
2019-03-10T16:10:32.434Z,14.62
2019-03-10T16:13:02.658Z,14.78
2019-03-10T16:15:32.956Z,14.95
2019-03-10T16:18:02.861Z,15.43
2019-03-10T16:20:32.866Z,16.25
2019-03-10T16:23:03.069Z,16.45
2019-03-10T16:25:33.278Z,18.18
2019-03-10T16:28:03.525Z,17.44
2019-03-10T16:30:33.737Z,17.61
2019-03-10T16:33:03.818Z,18.15
2019-03-10T16:35:33.841Z,17.06
2019-03-10T16:38:04.116Z,17.49
2019-03-10T16:40:34.345Z,17.43
2019-03-10T16:43:04.468Z,17.91
2019-03-10T16:45:34.492Z,18.58
2019-03-10T16:48:04.691Z,19.49
2019-03-10T16:50:34.912Z,19.38
2019-03-10T16:53:05.031Z,18.88
2019-03-10T16:55:35.084Z,19.95
2019-03-10T16:58:05.323Z,20.35
2019-03-10T17:00:35.623Z,20.57
2019-03-10T17:03:05.899Z,20.75
2019-03-10T17:05:35.963Z,22.10
2019-03-10T17:08:06.182Z,23.16
2019-03-10T17:10:36.199Z,22.87
2019-03-10T17:13:06.403Z,20.25
2019-03-10T17:15:36.633Z,21.46
2019-03-10T17:18:06.776Z,21.43
2019-03-10T17:20:36.822Z,20.16
2019-03-10T17:23:07.060Z,21.82
2019-03-10T17:25:37.292Z,22.43
2019-03-10T17:28:07.422Z,22.81
2019-03-10T17:30:37.553Z,22.92
2019-03-10T17:33:07.786Z,22.96
2019-03-10T17:35:38.134Z,22.57
2019-03-10T17:38:08.342Z,22.79
2019-03-10T17:40:38.366Z,23.50
2019-03-10T17:43:08.590Z,23.67
2019-03-10T17:45:38.805Z,23.75
2019-03-10T17:48:08.931Z,23.36
2019-03-10T17:50:39.169Z,24.05
2019-03-10T17:53:09.313Z,24.78
2019-03-10T17:55:39.420Z,25.53
2019-03-10T17:58:09.645Z,25.17
2019-03-10T18:00:40.178Z,24.45
2019-03-10T18:03:10.567Z,25.03
2019-03-10T18:05:40.991Z,24.34
2019-03-10T18:08:11.237Z,24.12
2019-03-10T18:10:41.566Z,24.39
2019-03-10T18:13:11.601Z,25.48
2019-03-10T18:15:41.517Z,25.80
2019-03-10T18:18:11.759Z,25.99
2019-03-10T18:20:41.990Z,24.99
2019-03-10T18:23:12.032Z,24.26
2019-03-10T18:25:42.176Z,24.27
2019-03-10T18:28:12.450Z,24.04
2019-03-10T18:30:42.691Z,24.48
2019-03-10T18:33:13.011Z,24.74
2019-03-10T18:35:43.278Z,25.19
2019-03-10T18:38:13.421Z,24.51
2019-03-10T18:40:43.556Z,24.39
2019-03-10T18:43:13.806Z,25.36
2019-03-10T18:45:44.049Z,25.03
2019-03-10T18:48:14.250Z,25.16
2019-03-10T18:50:44.397Z,25.31
2019-03-10T18:53:14.616Z,25.16
2019-03-10T18:55:44.831Z,25.11
2019-03-10T18:58:14.845Z,25.07
2019-03-10T19:00:44.862Z,24.59
2019-03-10T19:03:15.122Z,25.32
2019-03-10T19:05:45.344Z,25.28
2019-03-10T19:08:15.307Z,25.07
2019-03-10T19:10:45.505Z,25.06
2019-03-10T19:13:15.636Z,26.73
2019-03-10T19:15:45.654Z,25.94
2019-03-10T19:18:15.908Z,26.02
2019-03-10T19:20:46.131Z,27.75
2019-03-10T19:23:16.325Z,27.31
2019-03-10T19:25:46.454Z,27.50
2019-03-10T19:28:16.675Z,28.18
2019-03-10T19:30:46.895Z,28.03
2019-03-10T19:33:16.905Z,26.80
2019-03-10T19:35:47.056Z,27.46
2019-03-10T19:38:17.311Z,28.51
2019-03-10T19:40:47.572Z,28.51
2019-03-10T19:43:17.605Z,29.20
2019-03-10T19:45:47.726Z,29.25
2019-03-10T19:48:17.961Z,29.29
2019-03-10T19:50:47.961Z,28.49
2019-03-10T19:53:18.249Z,28.20
2019-03-10T19:55:48.473Z,28.02
2019-03-10T19:58:18.507Z,27.92
2019-03-10T20:00:48.538Z,28.55
2019-03-10T20:03:19.029Z,29.22
2019-03-10T20:05:49.510Z,29.04
2019-03-10T20:08:19.520Z,28.90
2019-03-10T20:10:49.661Z,28.17
2019-03-10T20:13:19.878Z,29.01
2019-03-10T20:15:52.483Z,28.92
2019-03-10T20:18:21.982Z,28.80
2019-03-10T20:20:52.169Z,28.29
2019-03-10T20:23:22.405Z,29.35
2019-03-10T20:25:52.683Z,29.74
2019-03-10T20:28:22.798Z,29.61
2019-03-10T20:30:52.929Z,29.09
2019-03-10T20:33:23.288Z,30.78
2019-03-10T20:35:53.465Z,30.26
2019-03-10T20:38:23.473Z,29.83
2019-03-10T20:40:53.376Z,31.80
2019-03-10T20:43:23.583Z,33.42
2019-03-10T20:45:53.821Z,32.02
2019-03-10T20:48:23.743Z,31.02
2019-03-10T20:50:53.665Z,30.66
2019-03-10T20:53:23.894Z,32.69
2019-03-10T20:55:54.133Z,32.82
2019-03-10T20:58:24.152Z,31.51
2019-03-10T21:00:54.197Z,31.36
2019-03-10T21:03:24.630Z,32.70
2019-03-10T21:05:54.983Z,33.25
2019-03-10T21:08:24.924Z,32.92
2019-03-10T21:10:55.289Z,32.08
2019-03-10T21:13:25.212Z,31.42
2019-03-10T21:15:55.223Z,31.54
2019-03-10T21:18:25.432Z,33.12
2019-03-10T21:20:55.654Z,32.01
2019-03-10T21:23:25.662Z,32.08
2019-03-10T21:25:55.810Z,32.26
2019-03-10T21:28:26.043Z,30.60
2019-03-10T21:30:56.292Z,31.45
2019-03-10T21:33:26.322Z,32.02
2019-03-10T21:35:56.331Z,33.67
2019-03-10T21:38:26.526Z,33.78
2019-03-10T21:40:56.739Z,34.04
2019-03-10T21:43:26.760Z,33.67
2019-03-10T21:45:56.776Z,35.37
2019-03-10T21:48:27.004Z,34.91
2019-03-10T21:50:56.988Z,33.91
2019-03-10T21:53:27.212Z,33.76
2019-03-10T21:55:57.421Z,35.21
2019-03-10T21:58:27.455Z,34.26
2019-03-10T22:00:57.489Z,33.36
2019-03-10T22:03:29.521Z,32.30
2019-03-10T22:05:59.806Z,32.64
2019-03-10T22:08:30.075Z,33.15
2019-03-10T22:11:00.067Z,33.43
2019-03-10T22:13:30.315Z,33.67
2019-03-10T22:16:00.641Z,34.87
2019-03-10T22:18:30.763Z,34.62
2019-03-10T22:21:00.679Z,36.69
2019-03-10T22:23:30.895Z,34.15
2019-03-10T22:26:01.165Z,33.58
2019-03-10T22:28:31.080Z,34.50
2019-03-10T22:31:01.305Z,34.58
2019-03-10T22:33:31.430Z,34.40
2019-03-10T22:36:01.353Z,33.84
2019-03-10T22:38:31.561Z,34.53
2019-03-10T22:41:01.798Z,33.88
2019-03-10T22:43:31.936Z,37.17
2019-03-10T22:46:01.940Z,36.05
2019-03-10T22:48:32.135Z,35.47
2019-03-10T22:51:02.346Z,34.88
2019-03-10T22:53:32.259Z,35.05
2019-03-10T22:56:02.174Z,34.63
2019-03-10T22:58:32.394Z,34.49
2019-03-10T23:01:02.627Z,33.82
2019-03-10T23:03:32.669Z,36.37
2019-03-10T23:06:02.673Z,36.21
2019-03-10T23:08:32.882Z,35.44
2019-03-10T23:11:02.979Z,36.74
2019-03-10T23:13:33.170Z,34.53
2019-03-10T23:16:03.380Z,37.23
2019-03-10T23:18:33.309Z,36.86
2019-03-10T23:21:03.337Z,35.31
2019-03-10T23:23:33.549Z,34.87
2019-03-10T23:26:03.747Z,36.94
2019-03-10T23:28:33.736Z,36.99
2019-03-10T23:31:03.737Z,37.05
2019-03-10T23:33:33.939Z,34.87
2019-03-10T23:36:04.167Z,34.65
2019-03-10T23:38:34.278Z,36.10
2019-03-10T23:41:04.413Z,35.40
2019-03-10T23:43:34.632Z,35.63
2019-03-10T23:46:04.831Z,35.41
2019-03-10T23:48:34.726Z,36.51
2019-03-10T23:51:04.928Z,37.58
2019-03-10T23:53:34.931Z,35.86
2019-03-10T23:56:05.044Z,35.75
2019-03-10T23:58:35.263Z,36.07
